Time;durP1;ratioP1;P1;durP2;ratioP2;P2;SDS_P1;SDS_P2;PMS_P1;PMS_P2;Temp;Humidity;BMP_temperature;BMP_pressure;BME280_temperature;BME280_humidity;BME280_pressure;Samples;Min_cycle;Max_cycle;Signal;HPM_P1;HPM_P2
2023/01/26 00:00:43;;;;;;;48.30;17.48;;;;;;;-0.51;100.00;100378.13;5160714;27;20427;-69
2023/01/26 00:03:10;;;;;;;48.67;17.55;;;;;;;-0.33;100.00;100376.09;5160223;27;20134;-65
2023/01/26 00:05:36;;;;;;;47.38;18.52;;;;;;;-0.49;100.00;100361.72;5160700;27;20049;-70
2023/01/26 00:08:03;;;;;;;47.33;17.30;;;;;;;-0.92;100.00;100360.94;5160195;27;20046;-70
2023/01/26 00:10:30;;;;;;;45.72;16.63;;;;;;;-0.69;100.00;100388.56;5160106;27;20051;-65
2023/01/26 00:12:57;;;;;;;42.08;16.80;;;;;;;-0.77;100.00;100392.53;5160118;27;20047;-70
2023/01/26 00:15:24;;;;;;;41.72;15.88;;;;;;;-0.46;100.00;100398.94;5160303;27;20047;-70
2023/01/26 00:17:50;;;;;;;41.55;15.18;;;;;;;-0.50;100.00;100395.94;5160433;27;20051;-70
2023/01/26 00:20:16;;;;;;;45.75;17.92;;;;;;;-0.88;100.00;100388.97;5160121;27;20047;-65
2023/01/26 00:22:43;;;;;;;46.83;18.77;;;;;;;-0.60;100.00;100405.81;5160404;27;20050;-67
2023/01/26 00:25:10;;;;;;;37.90;15.50;;;;;;;-0.63;100.00;100399.09;5159879;27;20080;-67
2023/01/26 00:27:36;;;;;;;48.30;19.02;;;;;;;-0.66;100.00;100404.19;5160322;27;20068;-69
2023/01/26 00:30:04;;;;;;;51.85;17.98;;;;;;;-0.37;100.00;100408.09;5159839;27;20411;-64
2023/01/26 00:32:30;;;;;;;48.22;17.38;;;;;;;-0.74;100.00;100411.66;5160183;27;20056;-69
2023/01/26 00:34:56;;;;;;;44.60;16.25;;;;;;;-0.55;100.00;100406.69;5159620;27;20054;-64
2023/01/26 00:37:22;;;;;;;42.83;17.88;;;;;;;-0.36;100.00;100398.97;5159988;27;20050;-70
2023/01/26 00:39:48;;;;;;;45.25;17.00;;;;;;;-0.38;100.00;100384.13;5160144;27;20320;-64
2023/01/26 00:42:15;;;;;;;38.08;15.57;;;;;;;-0.79;100.00;100387.41;5159621;27;20061;-69
2023/01/26 00:44:42;;;;;;;43.58;16.15;;;;;;;-0.86;100.00;100396.78;5159698;27;20079;-66
2023/01/26 00:47:10;;;;;;;45.35;15.18;;;;;;;-0.76;100.00;100403.06;5159471;27;20423;-65
2023/01/26 00:49:37;;;;;;;37.17;14.60;;;;;;;-0.74;100.00;100418.94;5159452;27;20477;-65
2023/01/26 00:52:04;;;;;;;38.28;14.30;;;;;;;-0.79;100.00;100414.34;5159479;27;20065;-66
2023/01/26 00:54:30;;;;;;;38.15;14.88;;;;;;;-0.55;100.00;100422.03;5159885;27;20050;-70
2023/01/26 00:56:57;;;;;;;39.80;14.38;;;;;;;-0.16;100.00;100429.78;5159488;27;20047;-66
2023/01/26 00:59:23;;;;;;;37.20;14.80;;;;;;;-0.08;100.00;100410.41;5159847;27;20057;-72
2023/01/26 01:01:50;;;;;;;45.97;16.45;;;;;;;-0.24;100.00;100396.03;5159483;27;20046;-68
2023/01/26 01:04:16;;;;;;;47.22;16.00;;;;;;;-0.18;100.00;100395.00;5159856;27;20062;-71
2023/01/26 01:06:43;;;;;;;39.42;14.18;;;;;;;-0.03;100.00;100384.28;5159605;27;20046;-68
2023/01/26 01:09:09;;;;;;;43.90;15.57;;;;;;;-0.03;100.00;100370.00;5159603;27;20054;-66
2023/01/26 01:11:35;;;;;;;36.92;13.48;;;;;;;0.05;100.00;100366.78;5160597;27;20046;-67
2023/01/26 01:14:02;;;;;;;44.65;16.42;;;;;;;-0.35;100.00;100356.66;5159359;27;20050;-68
2023/01/26 01:16:28;;;;;;;43.13;14.70;;;;;;;-0.59;100.00;100357.09;5159508;27;20051;-68
2023/01/26 01:18:55;;;;;;;40.90;15.73;;;;;;;-0.49;100.00;100377.88;5159040;27;20050;-70
2023/01/26 01:21:22;;;;;;;44.08;15.32;;;;;;;-0.46;100.00;100387.34;5159295;27;20047;-70
2023/01/26 01:23:49;;;;;;;46.05;14.80;;;;;;;-0.22;100.00;100387.72;5158906;27;20054;-66
2023/01/26 01:26:15;;;;;;;43.25;14.63;;;;;;;-0.30;100.00;100373.69;5159251;27;20047;-70
2023/01/26 01:28:42;;;;;;;45.38;15.05;;;;;;;-0.41;100.00;100368.50;5158927;27;20050;-68
2023/01/26 01:31:10;;;;;;;48.67;15.73;;;;;;;0.01;100.00;100376.47;5159300;27;20050;-70
2023/01/26 01:33:37;;;;;;;45.58;15.20;;;;;;;-0.25;100.00;100364.78;5158914;27;20047;-70
2023/01/26 01:36:06;;;;;;;45.17;17.83;;;;;;;-0.64;100.00;100367.81;5158984;27;20118;-70
2023/01/26 01:38:33;;;;;;;45.42;16.38;;;;;;;-0.86;100.00;100380.63;5158818;27;20046;-66
2023/01/26 01:40:59;;;;;;;47.30;15.38;;;;;;;-0.73;100.00;100396.34;5158636;27;20415;-67
2023/01/26 01:43:26;;;;;;;48.17;16.10;;;;;;;-0.70;100.00;100401.19;5158829;27;20411;-70
2023/01/26 01:45:53;;;;;;;52.20;17.45;;;;;;;-0.70;100.00;100387.72;5158605;27;20064;-66
2023/01/26 01:48:24;;;;;;;47.88;18.17;;;;;;;-0.54;100.00;100385.94;5158968;27;20054;-68
2023/01/26 01:50:53;;;;;;;54.05;17.17;;;;;;;-0.80;100.00;100387.66;5158721;27;20046;-69
2023/01/26 01:53:26;;;;;;;48.75;15.85;;;;;;;-0.99;100.00;100373.81;5158949;27;20312;-68
2023/01/26 01:55:56;;;;;;;45.55;16.60;;;;;;;-0.54;100.00;100378.66;5158274;27;20431;-70
2023/01/26 01:58:22;;;;;;;53.17;15.60;;;;;;;-0.86;100.00;100375.25;5157924;27;20042;-67
2023/01/26 02:00:49;;;;;;;51.85;16.23;;;;;;;-0.69;100.00;100375.91;5158452;27;20058;-66
2023/01/26 02:03:18;;;;;;;49.30;16.02;;;;;;;-0.42;100.00;100369.56;5158248;27;20051;-70
2023/01/26 02:05:51;;;;;;;52.15;15.73;;;;;;;-0.50;100.00;100360.91;5158693;27;20061;-70
2023/01/26 02:08:20;;;;;;;51.33;14.57;;;;;;;-0.31;100.00;100366.66;5158430;27;20043;-70
2023/01/26 02:10:50;;;;;;;54.15;17.58;;;;;;;-0.56;100.00;100361.97;5158640;27;20327;-71
2023/01/26 02:13:17;;;;;;;50.92;17.02;;;;;;;-0.73;100.00;100362.16;5158239;27;20309;-66
2023/01/26 02:15:44;;;;;;;52.58;17.27;;;;;;;-0.77;100.00;100355.66;5158560;27;20047;-67
2023/01/26 02:18:11;;;;;;;43.85;16.17;;;;;;;-0.93;100.00;100342.34;5158309;27;20134;-70
2023/01/26 02:20:43;;;;;;;60.17;18.15;;;;;;;-0.94;100.00;100341.53;5158613;27;20077;-70
2023/01/26 02:23:20;;;;;;;42.53;17.30;;;;;;;-0.89;100.00;100335.38;5158330;27;20050;-66
2023/01/26 02:26:16;;;;;;;58.42;18.10;;;;;;;-0.89;100.00;100328.13;5158214;27;20057;-68
2023/01/26 02:28:45;;;;;;;50.45;16.15;;;;;;;-1.05;100.00;100327.22;5137585;27;20316;-70
2023/01/26 02:31:12;;;;;;;48.83;16.60;;;;;;;-0.89;100.00;100311.97;5157905;27;20047;-70
2023/01/26 02:33:39;;;;;;;55.78;19.27;;;;;;;-1.00;100.00;100310.28;5158226;27;20058;-69
2023/01/26 02:36:07;;;;;;;53.92;19.95;;;;;;;-0.61;100.00;100302.66;5157964;27;20046;-70
2023/01/26 02:38:39;;;;;;;57.25;18.30;;;;;;;-0.64;100.00;100316.66;5158404;27;20054;-66
2023/01/26 02:41:08;;;;;;;59.38;19.15;;;;;;;-0.74;100.00;100324.69;5158117;27;20046;-65
2023/01/26 02:43:35;;;;;;;56.60;18.85;;;;;;;-0.68;100.00;100320.97;5157832;27;20408;-68
2023/01/26 02:46:02;;;;;;;48.10;18.00;;;;;;;-0.79;100.00;100325.50;5157836;27;20054;-66
2023/01/26 02:51:12;;;;;;;52.15;17.83;;;;;;;-0.31;100.00;100341.59;5158146;27;20099;-67
2023/01/26 02:53:39;;;;;;;50.70;18.42;;;;;;;-0.21;100.00;100338.94;5157719;27;20113;-70
2023/01/26 02:56:05;;;;;;;53.33;18.75;;;;;;;-0.25;100.00;100335.94;5158091;27;20057;-66
2023/01/26 02:58:31;;;;;;;45.05;17.10;;;;;;;-0.60;100.00;100342.03;5157615;27;20047;-70
2023/01/26 03:00:57;;;;;;;53.42;17.23;;;;;;;-0.54;100.00;100332.06;5158007;27;20054;-67
2023/01/26 03:03:40;;;;;;;59.38;19.80;;;;;;;-0.60;100.00;100336.63;5157509;27;20055;-70
2023/01/26 03:06:07;;;;;;;50.15;18.33;;;;;;;-0.48;100.00;100337.22;5157439;27;20153;-66
2023/01/26 03:08:33;;;;;;;56.17;18.30;;;;;;;-0.30;100.00;100332.41;5158261;27;20369;-71
2023/01/26 03:11:00;;;;;;;47.28;17.17;;;;;;;-0.60;100.00;100325.03;5161122;27;20110;-69
2023/01/26 03:13:26;;;;;;;50.17;17.08;;;;;;;-0.62;100.00;100317.22;5161362;27;20047;-66
2023/01/26 03:15:53;;;;;;;64.65;19.83;;;;;;;-0.51;100.00;100320.75;5161036;27;20050;-70
2023/01/26 03:29:38;;;;;;;51.92;18.90;;;;;;;-0.29;100.00;100299.03;5097852;28;20055;-66
2023/01/26 03:32:05;;;;;;;49.15;17.63;;;;;;;-0.36;100.00;100295.78;5133148;27;20060;-71
2023/01/26 03:34:31;;;;;;;55.03;20.63;;;;;;;-0.64;100.00;100294.31;5160805;27;20047;-66
2023/01/26 03:36:58;;;;;;;50.03;19.50;;;;;;;-0.46;100.00;100293.06;5161151;27;20083;-66
2023/01/26 03:56:18;;;;;;;49.15;16.48;;;;;;;-0.27;100.00;100272.59;5160511;27;20511;-70
2023/01/26 03:58:44;;;;;;;41.33;16.33;;;;;;;-0.21;100.00;100268.84;5160730;27;20392;-71
2023/01/26 04:01:18;;;;;;;47.83;17.50;;;;;;;-0.59;100.00;100275.50;5160442;27;20338;-69
2023/01/26 04:09:15;;;;;;;57.58;21.75;;;;;;;-0.37;100.00;100275.28;5160323;27;20111;-70
2023/01/26 04:11:42;;;;;;;44.70;18.65;;;;;;;-0.35;100.00;100283.91;5160291;27;20043;-67
2023/01/26 04:22:25;;;;;;;48.83;18.95;;;;;;;-0.15;100.00;100302.03;5160261;27;20488;-65
2023/01/26 04:24:52;;;;;;;48.30;17.83;;;;;;;-0.63;100.00;100309.38;5160525;27;20054;-70
2023/01/26 04:27:18;;;;;;;43.60;17.63;;;;;;;-0.48;100.00;100304.06;5161432;27;20050;-67
2023/01/26 04:29:44;;;;;;;47.13;18.33;;;;;;;-0.20;100.00;100299.31;5161071;27;20196;-71
2023/01/26 04:32:10;;;;;;;50.40;16.25;;;;;;;-0.50;100.00;100298.97;5159784;27;20046;-66
2023/01/26 04:34:37;;;;;;;51.22;18.80;;;;;;;-0.29;100.00;100291.75;5159993;27;20050;-70
2023/01/26 04:37:03;;;;;;;48.38;18.38;;;;;;;-0.44;100.00;100293.59;5159725;27;20076;-66
2023/01/26 04:39:29;;;;;;;45.33;17.33;;;;;;;-0.30;100.00;100289.31;5159942;27;20047;-70
2023/01/26 04:41:56;;;;;;;50.05;16.92;;;;;;;-0.34;100.00;100289.03;5159643;27;20047;-67
2023/01/26 04:44:22;;;;;;;53.17;17.15;;;;;;;-0.37;100.00;100280.66;5160031;27;20061;-68
2023/01/26 04:46:48;;;;;;;51.53;17.90;;;;;;;-0.43;100.00;100279.03;5159367;27;20087;-68
2023/01/26 04:49:15;;;;;;;47.55;17.50;;;;;;;-0.43;100.00;100265.56;5159985;27;20061;-68
2023/01/26 04:51:41;;;;;;;51.97;17.67;;;;;;;-0.30;100.00;100270.44;5159738;27;20046;-68
2023/01/26 04:54:07;;;;;;;52.70;17.73;;;;;;;-0.31;100.00;100261.56;5159258;27;20046;-66
2023/01/26 04:56:35;;;;;;;46.45;18.02;;;;;;;-0.13;100.00;100259.47;5159522;27;20432;-67
2023/01/26 04:59:06;;;;;;;51.85;18.55;;;;;;;-0.24;100.00;100272.09;5159522;27;20050;-69
2023/01/26 05:01:33;;;;;;;49.65;17.75;;;;;;;-0.36;100.00;100277.72;5159492;27;20046;-71
2023/01/26 05:03:59;;;;;;;43.72;17.95;;;;;;;-0.37;100.00;100273.38;5159307;27;20055;-71
2023/01/26 05:06:25;;;;;;;46.45;17.10;;;;;;;-0.31;100.00;100274.22;5159332;27;20396;-69
2023/01/26 05:08:52;;;;;;;65.78;19.08;;;;;;;-0.19;100.00;100282.09;5159011;27;20137;-65
2023/01/26 05:11:18;;;;;;;49.35;16.98;;;;;;;-0.49;100.00;100275.53;5159490;27;20467;-70
2023/01/26 05:13:46;;;;;;;49.83;18.45;;;;;;;-0.27;100.00;100261.81;5158989;27;20046;-64
2023/01/26 05:16:13;;;;;;;41.90;16.65;;;;;;;-0.43;100.00;100255.63;5159453;27;20433;-69
2023/01/26 05:18:39;;;;;;;49.30;18.65;;;;;;;-0.43;100.00;100254.78;5159300;27;20050;-65
2023/01/26 05:21:06;;;;;;;46.90;18.92;;;;;;;-0.22;100.00;100250.28;5158807;27;20053;-67
2023/01/26 05:23:32;;;;;;;59.08;19.52;;;;;;;-0.58;100.00;100253.66;5158976;27;20356;-66
2023/01/26 05:25:58;;;;;;;53.03;17.58;;;;;;;-0.59;100.00;100241.28;5158669;27;20086;-68
2023/01/26 05:28:25;;;;;;;48.78;16.88;;;;;;;-0.38;100.00;100238.66;5158914;27;20081;-70
2023/01/26 05:30:52;;;;;;;49.88;18.40;;;;;;;-0.40;100.00;100235.41;5158191;27;20541;-64
2023/01/26 05:33:20;;;;;;;52.75;18.23;;;;;;;-0.49;100.00;100232.44;5158282;27;20054;-69
2023/01/26 05:35:47;;;;;;;48.45;18.05;;;;;;;-0.58;100.00;100229.44;5158437;27;20042;-69
2023/01/26 05:38:13;;;;;;;39.63;16.60;;;;;;;-0.47;100.00;100214.09;5158923;27;20053;-67
2023/01/26 05:40:39;;;;;;;48.63;17.73;;;;;;;-0.57;100.00;100214.88;5158588;27;20055;-67
2023/01/26 05:43:07;;;;;;;46.63;16.83;;;;;;;-0.58;100.00;100221.34;5158974;27;20047;-68
2023/01/26 05:45:33;;;;;;;44.00;16.85;;;;;;;-0.55;100.00;100209.25;5158361;27;20331;-66
2023/01/26 05:47:59;;;;;;;40.22;15.70;;;;;;;-0.72;100.00;100225.63;5158295;27;20135;-67
2023/01/26 05:50:26;;;;;;;44.63;17.50;;;;;;;-0.59;100.00;100210.84;5158381;27;20055;-70
2023/01/26 05:52:53;;;;;;;45.95;17.90;;;;;;;-0.35;100.00;100200.38;5158261;27;20058;-64
2023/01/26 05:55:19;;;;;;;40.83;16.77;;;;;;;-0.48;100.00;100210.59;5158560;27;20305;-69
2023/01/26 05:57:45;;;;;;;55.42;19.33;;;;;;;-0.23;100.00;100214.44;5158277;27;20390;-68
2023/01/26 06:00:13;;;;;;;50.10;17.52;;;;;;;-0.63;100.00;100217.81;5158378;27;20062;-69
2023/01/26 06:02:39;;;;;;;42.40;16.38;;;;;;;-0.73;100.00;100215.94;5158107;27;20099;-67
2023/01/26 06:05:07;;;;;;;42.40;17.08;;;;;;;-0.68;100.00;100197.06;5158588;27;20047;-70
2023/01/26 06:07:34;;;;;;;50.22;17.15;;;;;;;-0.78;100.00;100188.97;5158138;27;20419;-66
2023/01/26 06:10:00;;;;;;;45.88;17.38;;;;;;;-0.51;100.00;100180.69;5158086;27;20138;-69
2023/01/26 06:12:30;;;;;;;38.58;15.75;;;;;;;-0.61;100.00;100184.16;5158031;27;20110;-66
2023/01/26 06:14:56;;;;;;;50.33;17.48;;;;;;;-0.46;100.00;100177.22;5158044;27;20047;-69
2023/01/26 06:17:23;;;;;;;44.88;18.10;;;;;;;-0.61;100.00;100186.06;5157769;27;20076;-66
2023/01/26 06:19:49;;;;;;;44.53;18.02;;;;;;;-0.59;100.00;100183.91;5157897;27;20050;-70
2023/01/26 06:22:16;;;;;;;51.20;19.73;;;;;;;-0.33;100.00;100180.19;5158405;27;20372;-65
2023/01/26 06:24:42;;;;;;;49.33;21.40;;;;;;;-0.06;100.00;100193.41;5158009;27;20050;-69
2023/01/26 06:27:12;;;;;;;55.25;19.17;;;;;;;-0.19;100.00;100207.41;5157952;27;20047;-69
2023/01/26 06:29:38;;;;;;;56.95;20.60;;;;;;;-0.47;100.00;100214.09;5157436;27;20050;-66
2023/01/26 06:32:05;;;;;;;52.78;20.10;;;;;;;-0.53;100.00;100218.69;5158029;27;20065;-71
2023/01/26 06:34:32;;;;;;;54.88;20.63;;;;;;;-0.36;100.00;100215.75;5157618;27;20054;-68
2023/01/26 06:36:58;;;;;;;57.97;21.50;;;;;;;-0.16;100.00;100214.97;5158288;27;20053;-69
2023/01/26 06:39:24;;;;;;;52.78;21.38;;;;;;;-0.12;100.00;100231.41;5157737;27;20055;-68
2023/01/26 06:41:51;;;;;;;54.65;20.70;;;;;;;-0.46;100.00;100237.28;5158037;27;20065;-70
2023/01/26 06:44:18;;;;;;;73.47;24.85;;;;;;;-0.45;100.00;100221.94;5160795;27;20060;-70
2023/01/26 06:46:44;;;;;;;66.35;21.98;;;;;;;-0.25;100.00;100213.88;5161650;27;20050;-66
2023/01/26 06:49:10;;;;;;;60.33;22.65;;;;;;;-0.07;100.00;100213.38;5161517;27;20363;-71
2023/01/26 06:51:47;;;;;;;68.38;26.67;;;;;;;-0.30;100.00;100217.38;5161343;27;20069;-66
2023/01/26 06:54:14;;;;;;;69.60;26.08;;;;;;;-0.22;100.00;100207.16;5161491;27;20137;-69
2023/01/26 06:56:41;;;;;;;70.25;25.70;;;;;;;-0.46;100.00;100214.94;5161200;27;20483;-69
2023/01/26 06:59:09;;;;;;;74.32;26.17;;;;;;;-0.65;100.00;100201.13;5161425;27;20047;-67
2023/01/26 07:01:38;;;;;;;77.68;27.52;;;;;;;0.06;100.00;100195.03;5161015;27;20079;-70
2023/01/26 07:04:05;;;;;;;69.75;24.75;;;;;;;-0.09;100.00;100209.31;5161527;27;20054;-71
2023/01/26 07:06:31;;;;;;;65.22;23.25;;;;;;;-0.09;100.00;100215.53;5160767;27;20133;-68
2023/01/26 07:08:57;;;;;;;61.90;21.08;;;;;;;0.07;100.00;100219.03;5161120;27;20046;-68
2023/01/26 07:11:24;;;;;;;67.57;23.23;;;;;;;-0.40;100.00;100233.53;5160962;27;20046;-70
2023/01/26 07:13:51;;;;;;;64.75;23.55;;;;;;;-0.60;100.00;100226.22;5161015;27;20079;-70
2023/01/26 07:16:18;;;;;;;64.10;23.50;;;;;;;-0.11;100.00;100209.56;5160960;27;20050;-70
2023/01/26 07:18:44;;;;;;;70.82;23.13;;;;;;;-0.16;100.00;100214.97;5161099;27;20240;-69
2023/01/26 07:21:13;;;;;;;73.00;25.25;;;;;;;-0.22;100.00;100221.44;5161160;27;20355;-68
2023/01/26 07:23:39;;;;;;;74.68;23.58;;;;;;;-0.32;100.00;100222.22;5160655;27;20335;-68
2023/01/26 07:26:06;;;;;;;72.18;27.50;;;;;;;-0.67;100.00;100220.22;5160889;27;20058;-70
2023/01/26 07:28:33;;;;;;;86.60;29.55;;;;;;;-0.32;100.00;100205.25;5160592;27;20094;-66
2023/01/26 07:31:00;;;;;;;66.95;25.52;;;;;;;-0.42;100.00;100206.03;5161034;27;20046;-71
2023/01/26 07:33:27;;;;;;;66.18;23.45;;;;;;;-0.52;100.00;100193.34;5160402;27;20050;-70
2023/01/26 07:35:54;;;;;;;74.07;24.20;;;;;;;-0.61;100.00;100183.38;5160811;27;20400;-66
2023/01/26 07:38:21;;;;;;;61.10;21.77;;;;;;;-0.35;100.00;100170.75;5160697;27;20084;-67
2023/01/26 07:40:47;;;;;;;78.32;26.20;;;;;;;-0.40;100.00;100176.13;5160997;27;20057;-67
2023/01/26 07:43:14;;;;;;;72.82;26.58;;;;;;;-0.04;100.00;100168.88;5161645;27;20046;-67
2023/01/26 07:45:43;;;;;;;63.50;23.13;;;;;;;0.19;100.00;100168.31;5161146;27;20392;-67
2023/01/26 07:48:10;;;;;;;60.25;20.42;;;;;;;0.01;100.00;100187.75;5160594;27;20103;-71
2023/01/26 07:50:37;;;;;;;65.00;24.77;;;;;;;-0.48;100.00;100182.84;5160144;27;20047;-66
2023/01/26 07:53:03;;;;;;;61.45;21.83;;;;;;;-0.68;100.00;100172.84;5159814;27;20057;-69
2023/01/26 07:55:29;;;;;;;66.07;26.52;;;;;;;-0.20;100.00;100157.31;5158912;27;20047;-66
2023/01/26 07:57:56;;;;;;;60.63;24.02;;;;;;;-0.68;100.00;100169.34;5160531;27;20378;-67
2023/01/26 08:00:23;;;;;;;76.20;25.48;;;;;;;-0.62;100.00;100157.50;5160041;27;20370;-66
2023/01/26 08:02:49;;;;;;;73.13;23.52;;;;;;;-0.35;100.00;100143.81;5160501;27;20050;-70
2023/01/26 08:05:16;;;;;;;66.15;26.65;;;;;;;-0.34;100.00;100148.91;5160023;27;20058;-71
2023/01/26 08:07:42;;;;;;;66.43;26.85;;;;;;;-0.37;100.00;100149.44;5160065;27;20047;-69
2023/01/26 08:10:11;;;;;;;76.93;28.63;;;;;;;0.02;100.00;100142.72;5160216;27;20047;-66
2023/01/26 08:12:37;;;;;;;75.13;26.70;;;;;;;-0.37;100.00;100171.00;5159706;27;20051;-71
2023/01/26 08:15:04;;;;;;;64.20;24.80;;;;;;;-0.55;100.00;100179.59;5160337;27;20050;-70
2023/01/26 08:17:32;;;;;;;71.32;24.15;;;;;;;-0.12;100.00;100188.28;5159740;27;20305;-66
2023/01/26 08:19:59;;;;;;;60.33;24.38;;;;;;;-0.09;100.00;100203.94;5160054;27;20054;-71
2023/01/26 08:22:25;;;;;;;62.60;23.45;;;;;;;0.02;100.00;100204.75;5159691;27;20456;-70
2023/01/26 08:24:52;;;;;;;56.95;20.67;;;;;;;-0.34;100.00;100216.28;5160037;27;20199;-67
2023/01/26 08:27:18;;;;;;;56.17;20.05;;;;;;;0.13;100.00;100217.94;5159522;27;20062;-70
2023/01/26 08:29:45;;;;;;;54.00;18.70;;;;;;;-0.40;100.00;100230.84;5160018;27;20114;-67
2023/01/26 08:32:11;;;;;;;56.88;19.70;;;;;;;-0.40;100.00;100233.53;5159488;27;20384;-71
2023/01/26 08:34:37;;;;;;;49.97;19.13;;;;;;;-0.48;100.00;100234.03;5159741;27;20200;-67
2023/01/26 08:37:03;;;;;;;48.65;17.75;;;;;;;-0.36;100.00;100225.72;5159456;27;20093;-72
2023/01/26 08:39:30;;;;;;;47.05;15.65;;;;;;;-0.29;100.00;100237.84;5159641;27;20338;-69
2023/01/26 08:41:56;;;;;;;45.78;18.60;;;;;;;0.26;100.00;100231.97;5159481;27;20051;-72
2023/01/26 08:44:23;;;;;;;43.70;17.55;;;;;;;0.64;100.00;100244.88;5159366;27;20411;-62
2023/01/26 08:46:49;;;;;;;41.13;15.57;;;;;;;0.70;100.00;100248.41;5159611;27;20495;-75
2023/01/26 08:49:15;;;;;;;51.65;16.90;;;;;;;0.52;100.00;100255.16;5159513;27;20059;-67
2023/01/26 08:51:41;;;;;;;41.75;15.45;;;;;;;0.75;100.00;100251.06;5159682;27;20117;-68
2023/01/26 08:54:08;;;;;;;39.17;15.80;;;;;;;1.01;100.00;100232.13;5159127;27;20054;-63
2023/01/26 08:56:34;;;;;;;47.72;18.08;;;;;;;0.84;100.00;100208.94;5159788;27;20092;-77
2023/01/26 08:59:01;;;;;;;38.47;16.20;;;;;;;1.07;100.00;100168.91;5159137;27;20047;-69
2023/01/26 09:01:27;;;;;;;48.35;17.65;;;;;;;0.81;100.00;100125.00;5159327;27;20213;-68
2023/01/26 09:03:55;;;;;;;41.80;16.73;;;;;;;0.77;100.00;100105.84;5158996;27;20400;-72
2023/01/26 09:06:21;;;;;;;41.70;16.20;;;;;;;1.16;100.00;100092.41;5158748;27;20050;-64
2023/01/26 09:08:47;;;;;;;39.17;16.52;;;;;;;0.94;100.00;100033.41;5159157;27;20046;-65
2023/01/26 09:11:14;;;;;;;47.55;17.05;;;;;;;0.99;100.00;100002.88;5159079;27;20076;-67
2023/01/26 09:13:40;;;;;;;41.97;16.20;;;;;;;1.02;100.00;99982.59;5159074;27;20195;-64
2023/01/26 09:16:12;;;;;;;47.42;17.40;;;;;;;0.65;100.00;99982.03;5158894;27;20061;-69
2023/01/26 09:18:38;;;;;;;45.20;17.00;;;;;;;0.80;100.00;99970.34;5159108;27;20061;-67
2023/01/26 09:21:06;;;;;;;50.42;22.52;;;;;;;0.66;100.00;99964.75;5158886;27;20061;-66
2023/01/26 09:23:33;;;;;;;45.40;17.48;;;;;;;0.53;100.00;99959.16;5158830;27;20065;-66
2023/01/26 09:25:59;;;;;;;50.45;19.02;;;;;;;0.96;100.00;99954.03;5158725;27;20099;-67
2023/01/26 09:28:26;;;;;;;47.80;19.13;;;;;;;0.75;100.00;99899.38;5159293;27;20042;-65
2023/01/26 09:30:52;;;;;;;47.45;18.63;;;;;;;0.59;100.00;99888.69;5158946;27;20047;-68
2023/01/26 09:33:20;;;;;;;40.03;18.70;;;;;;;0.86;100.00;99900.91;5158815;27;20054;-65
2023/01/26 09:35:47;;;;;;;42.20;18.60;;;;;;;0.93;100.00;99861.72;5158852;27;20055;-66
2023/01/26 09:38:13;;;;;;;47.60;18.13;;;;;;;1.02;100.00;99805.19;5158669;27;20130;-68
2023/01/26 09:40:49;;;;;;;43.55;17.80;;;;;;;0.80;100.00;99784.09;5158986;27;20345;-65
2023/01/26 09:43:24;;;;;;;51.50;20.48;;;;;;;0.93;100.00;99788.00;5158572;27;20142;-68
2023/01/26 09:46:00;;;;;;;54.92;21.10;;;;;;;1.14;100.00;99764.31;5158790;27;20392;-68
2023/01/26 09:48:34;;;;;;;46.83;19.02;;;;;;;0.96;100.00;99708.34;5158309;27;20154;-65
2023/01/26 09:51:08;;;;;;;46.17;18.38;;;;;;;1.07;100.00;99666.66;5158282;27;20056;-64
2023/01/26 09:53:39;;;;;;;;;;;;;;;1.10;100.00;99672.25;5158945;27;20061;-66
2023/01/26 09:56:08;;;;;;;46.22;18.55;;;;;;;0.74;100.00;99671.88;5158158;27;19923;-68
2023/01/26 09:58:38;;;;;;;42.13;17.13;;;;;;;0.45;100.00;99677.31;5158025;27;20057;-67
2023/01/26 10:01:13;;;;;;;40.40;16.52;;;;;;;0.61;100.00;99721.13;5158090;27;20059;-71
2023/01/26 10:03:46;;;;;;;50.95;18.83;;;;;;;0.83;100.00;99744.91;5158154;27;20046;-71
2023/01/26 10:06:20;;;;;;;50.45;19.45;;;;;;;0.83;100.00;99705.22;5159053;27;20129;-65
2023/01/26 10:08:48;;;;;;;41.63;16.63;;;;;;;1.23;100.00;99673.44;5159292;27;20057;-67
2023/01/26 10:11:20;;;;;;;50.70;19.02;;;;;;;0.97;100.00;99691.88;5157950;27;20090;-65
2023/01/26 10:13:53;;;;;;;43.08;18.73;;;;;;;0.71;100.00;99661.66;5157759;27;20423;-70
2023/01/26 10:16:23;;;;;;;34.28;15.00;;;;;;;0.40;100.00;99694.38;5158326;27;20133;-67
2023/01/26 10:18:55;;;;;;;35.92;14.23;;;;;;;0.20;100.00;99737.66;5157254;27;20050;-67
2023/01/26 10:21:26;;;;;;;45.30;16.10;;;;;;;0.81;100.00;99788.41;5157889;27;20058;-66
2023/01/26 10:23:52;;;;;;;45.28;16.33;;;;;;;0.85;100.00;99796.72;5157968;27;20114;-67
2023/01/26 10:26:20;;;;;;;32.58;13.50;;;;;;;0.41;100.00;99744.50;5158126;27;20349;-68
2023/01/26 10:28:48;;;;;;;37.97;14.93;;;;;;;0.43;100.00;99801.69;5157782;27;20050;-67
2023/01/26 10:31:17;;;;;;;34.72;13.90;;;;;;;0.01;100.00;99852.69;5157872;27;20323;-63
2023/01/26 10:33:49;;;;;;;48.60;16.52;;;;;;;0.54;100.00;99936.50;5157454;27;20420;-65
2023/01/26 10:36:16;;;;;;;46.10;15.77;;;;;;;0.44;100.00;99948.97;5157883;27;20372;-64
2023/01/26 10:38:43;;;;;;;41.58;16.95;;;;;;;0.44;100.00;99916.59;5157682;27;20047;-65
2023/01/26 10:41:28;;;;;;;47.20;17.75;;;;;;;0.35;100.00;99947.94;5157645;27;20042;-75
2023/01/26 10:43:56;;;;;;;40.38;15.57;;;;;;;0.14;100.00;99952.63;5156503;27;20086;-70
2023/01/26 10:46:34;;;;;;;47.22;17.95;;;;;;;0.51;100.00;99954.06;5157726;27;20047;-68
2023/01/26 10:49:02;;;;;;;37.15;14.20;;;;;;;0.11;100.00;99926.22;5157596;27;20137;-68
2023/01/26 10:51:31;;;;;;;36.03;13.60;;;;;;;0.13;100.00;99944.78;5157519;27;20106;-65
2023/01/26 10:54:23;;;;;;;36.92;14.68;;;;;;;0.61;100.00;99974.78;5158246;27;20050;-69
2023/01/26 10:56:55;;;;;;;39.13;15.70;;;;;;;0.65;100.00;99940.75;5157761;27;20046;-68
2023/01/26 10:59:29;;;;;;;36.38;14.80;;;;;;;0.01;100.00;99907.38;5157674;27;20047;-66
2023/01/26 11:01:57;;;;;;;48.83;18.93;;;;;;;0.10;100.00;99989.31;5157670;27;20054;-71
2023/01/26 11:04:24;;;;;;;51.80;17.10;;;;;;;-0.06;100.00;100020.91;5157180;27;20287;-63
2023/01/26 11:06:51;;;;;;;46.55;18.70;;;;;;;0.23;100.00;100063.41;5157609;27;20053;-64
2023/01/26 11:09:20;;;;;;;49.70;20.52;;;;;;;0.21;100.00;100096.06;5157157;27;20442;-69
2023/01/26 11:12:00;;;;;;;51.08;20.88;;;;;;;0.43;100.00;100098.44;5157611;27;20051;-65
2023/01/26 11:14:27;;;;;;;58.28;22.23;;;;;;;0.19;100.00;100106.28;5157345;27;20043;-73
2023/01/26 11:16:59;;;;;;;45.28;21.05;;;;;;;0.44;100.00;100127.03;5157390;27;20050;-68
2023/01/26 11:19:42;;;;;;;57.67;24.23;;;;;;;0.63;100.00;100112.91;5157546;27;20070;-76
2023/01/26 11:22:12;;;;;;;47.60;21.63;;;;;;;-0.05;100.00;100097.97;5157244;27;20051;-67
2023/01/26 11:24:45;;;;;;;60.28;22.08;;;;;;;0.26;100.00;100116.00;5157653;27;20077;-68
2023/01/26 11:27:39;;;;;;;53.03;20.85;;;;;;;0.46;100.00;100122.13;5157055;27;20043;-67
2023/01/26 11:30:22;;;;;;;47.80;21.57;;;;;;;0.21;100.00;100122.22;5155768;27;20122;-72
2023/01/26 11:32:58;;;;;;;51.28;22.27;;;;;;;0.45;100.00;100120.53;5160907;27;20142;-70
2023/01/26 11:35:31;;;;;;;70.93;23.65;;;;;;;0.38;100.00;100109.22;5160552;27;20051;-67
2023/01/26 11:38:10;;;;;;;52.13;22.35;;;;;;;0.79;100.00;100106.38;5160808;27;20046;-69
2023/01/26 11:40:42;;;;;;;60.28;25.27;;;;;;;0.67;100.00;100084.31;5160521;27;20138;-69
2023/01/26 11:43:29;;;;;;;55.80;23.63;;;;;;;0.40;100.00;100076.56;5160801;27;20047;-66
2023/01/26 11:46:20;;;;;;;53.53;23.58;;;;;;;0.73;100.00;100098.56;5139208;27;20370;-72
2023/01/26 11:48:59;;;;;;;54.58;25.30;;;;;;;0.56;100.00;100077.31;5160386;27;20054;-68
2023/01/26 11:51:40;;;;;;;61.00;22.95;;;;;;;0.17;100.00;100086.91;5160651;27;20323;-67
2023/01/26 11:54:33;;;;;;;55.53;22.63;;;;;;;0.78;100.00;100079.66;5160134;27;20107;-69